sensor_id;sensor_type;location;lat;lon;timestamp;P1;durP1;ratioP1;P2;durP2;ratioP2
23044;SDS011;11690;51.716;23.066;2023-09-19T00:00:44;16.73;;;7.88;;
23044;SDS011;11690;51.716;23.066;2023-09-19T00:03:34;15.45;;;7.60;;
23044;SDS011;11690;51.716;23.066;2023-09-19T00:06:05;12.82;;;7.40;;
23044;SDS011;11690;51.716;23.066;2023-09-19T00:08:34;13.75;;;7.22;;
23044;SDS011;11690;51.716;23.066;2023-09-19T00:11:02;12.98;;;7.13;;
23044;SDS011;11690;51.716;23.066;2023-09-19T00:13:30;13.63;;;7.95;;
23044;SDS011;11690;51.716;23.066;2023-09-19T00:15:58;16.48;;;8.10;;
23044;SDS011;11690;51.716;23.066;2023-09-19T00:18:25;13.90;;;8.10;;
23044;SDS011;11690;51.716;23.066;2023-09-19T00:20:59;14.52;;;8.20;;
23044;SDS011;11690;51.716;23.066;2023-09-19T00:23:26;15.15;;;7.88;;
23044;SDS011;11690;51.716;23.066;2023-09-19T00:25:58;12.85;;;7.50;;
23044;SDS011;11690;51.716;23.066;2023-09-19T00:28:27;14.38;;;7.28;;
23044;SDS011;11690;51.716;23.066;2023-09-19T00:30:57;15.02;;;7.25;;
23044;SDS011;11690;51.716;23.066;2023-09-19T00:33:28;11.40;;;7.10;;
23044;SDS011;11690;51.716;23.066;2023-09-19T00:35:56;13.70;;;7.15;;
23044;SDS011;11690;51.716;23.066;2023-09-19T00:38:24;15.85;;;7.68;;
23044;SDS011;11690;51.716;23.066;2023-09-19T00:40:54;14.50;;;7.05;;
23044;SDS011;11690;51.716;23.066;2023-09-19T00:43:26;11.70;;;7.22;;
23044;SDS011;11690;51.716;23.066;2023-09-19T00:45:55;12.88;;;7.13;;
23044;SDS011;11690;51.716;23.066;2023-09-19T00:48:24;14.48;;;7.57;;
23044;SDS011;11690;51.716;23.066;2023-09-19T00:50:54;19.45;;;8.50;;
23044;SDS011;11690;51.716;23.066;2023-09-19T00:53:24;15.68;;;8.32;;
23044;SDS011;11690;51.716;23.066;2023-09-19T00:55:53;15.38;;;8.30;;
23044;SDS011;11690;51.716;23.066;2023-09-19T00:58:20;14.40;;;7.80;;
23044;SDS011;11690;51.716;23.066;2023-09-19T01:00:48;14.45;;;7.38;;
23044;SDS011;11690;51.716;23.066;2023-09-19T01:03:16;16.27;;;7.43;;
23044;SDS011;11690;51.716;23.066;2023-09-19T01:05:45;13.38;;;7.40;;
23044;SDS011;11690;51.716;23.066;2023-09-19T01:08:13;16.35;;;8.07;;
23044;SDS011;11690;51.716;23.066;2023-09-19T01:10:44;14.85;;;7.72;;
23044;SDS011;11690;51.716;23.066;2023-09-19T01:13:40;13.10;;;7.97;;
23044;SDS011;11690;51.716;23.066;2023-09-19T01:16:26;12.32;;;7.20;;
23044;SDS011;11690;51.716;23.066;2023-09-19T01:30:20;16.73;;;8.27;;
23044;SDS011;11690;51.716;23.066;2023-09-19T01:32:50;14.98;;;7.38;;
23044;SDS011;11690;51.716;23.066;2023-09-19T01:35:19;14.93;;;8.48;;
23044;SDS011;11690;51.716;23.066;2023-09-19T01:37:46;13.98;;;6.97;;
23044;SDS011;11690;51.716;23.066;2023-09-19T01:40:14;18.15;;;7.57;;
23044;SDS011;11690;51.716;23.066;2023-09-19T01:48:43;14.80;;;7.18;;
23044;SDS011;11690;51.716;23.066;2023-09-19T01:51:14;12.75;;;8.13;;
23044;SDS011;11690;51.716;23.066;2023-09-19T01:56:31;12.50;;;7.72;;
23044;SDS011;11690;51.716;23.066;2023-09-19T01:59:07;11.75;;;7.18;;
23044;SDS011;11690;51.716;23.066;2023-09-19T02:01:37;14.38;;;7.68;;
23044;SDS011;11690;51.716;23.066;2023-09-19T02:04:05;13.80;;;7.82;;
23044;SDS011;11690;51.716;23.066;2023-09-19T02:06:34;15.13;;;7.82;;
23044;SDS011;11690;51.716;23.066;2023-09-19T02:09:01;18.85;;;7.85;;
23044;SDS011;11690;51.716;23.066;2023-09-19T02:11:29;13.88;;;8.00;;
23044;SDS011;11690;51.716;23.066;2023-09-19T02:13:56;16.33;;;7.60;;
23044;SDS011;11690;51.716;23.066;2023-09-19T02:16:24;15.95;;;7.57;;
23044;SDS011;11690;51.716;23.066;2023-09-19T02:18:52;15.90;;;8.20;;
23044;SDS011;11690;51.716;23.066;2023-09-19T02:21:19;11.07;;;7.30;;
23044;SDS011;11690;51.716;23.066;2023-09-19T02:23:49;12.68;;;7.63;;
23044;SDS011;11690;51.716;23.066;2023-09-19T02:26:16;16.45;;;8.70;;
23044;SDS011;11690;51.716;23.066;2023-09-19T02:28:43;14.70;;;8.00;;
23044;SDS011;11690;51.716;23.066;2023-09-19T02:31:10;13.70;;;7.50;;
23044;SDS011;11690;51.716;23.066;2023-09-19T02:33:38;13.55;;;7.35;;
23044;SDS011;11690;51.716;23.066;2023-09-19T02:36:05;14.40;;;7.70;;
23044;SDS011;11690;51.716;23.066;2023-09-19T02:38:33;15.60;;;7.63;;
23044;SDS011;11690;51.716;23.066;2023-09-19T02:41:00;15.05;;;7.18;;
23044;SDS011;11690;51.716;23.066;2023-09-19T02:43:28;11.88;;;7.55;;
23044;SDS011;11690;51.716;23.066;2023-09-19T02:45:55;11.98;;;7.55;;
23044;SDS011;11690;51.716;23.066;2023-09-19T02:48:24;13.20;;;7.63;;
23044;SDS011;11690;51.716;23.066;2023-09-19T02:50:52;13.85;;;7.72;;
23044;SDS011;11690;51.716;23.066;2023-09-19T02:53:20;14.63;;;7.93;;
23044;SDS011;11690;51.716;23.066;2023-09-19T02:55:47;13.48;;;7.70;;
23044;SDS011;11690;51.716;23.066;2023-09-19T02:58:15;13.55;;;7.50;;
23044;SDS011;11690;51.716;23.066;2023-09-19T03:00:42;17.30;;;7.75;;
23044;SDS011;11690;51.716;23.066;2023-09-19T03:03:15;14.68;;;8.43;;
23044;SDS011;11690;51.716;23.066;2023-09-19T03:05:43;14.10;;;7.97;;
23044;SDS011;11690;51.716;23.066;2023-09-19T03:08:16;11.30;;;7.60;;
23044;SDS011;11690;51.716;23.066;2023-09-19T03:10:46;15.73;;;7.55;;
23044;SDS011;11690;51.716;23.066;2023-09-19T03:13:15;14.93;;;7.68;;
23044;SDS011;11690;51.716;23.066;2023-09-19T03:15:42;13.50;;;7.28;;
23044;SDS011;11690;51.716;23.066;2023-09-19T03:18:21;13.43;;;7.65;;
23044;SDS011;11690;51.716;23.066;2023-09-19T03:20:54;13.93;;;8.05;;
23044;SDS011;11690;51.716;23.066;2023-09-19T03:23:23;12.85;;;8.25;;
23044;SDS011;11690;51.716;23.066;2023-09-19T03:25:50;12.38;;;7.60;;
23044;SDS011;11690;51.716;23.066;2023-09-19T03:28:20;12.93;;;7.93;;
23044;SDS011;11690;51.716;23.066;2023-09-19T03:31:02;11.68;;;7.05;;
23044;SDS011;11690;51.716;23.066;2023-09-19T03:33:33;13.77;;;7.40;;
23044;SDS011;11690;51.716;23.066;2023-09-19T03:36:01;14.13;;;7.75;;
23044;SDS011;11690;51.716;23.066;2023-09-19T03:38:32;11.07;;;7.47;;
23044;SDS011;11690;51.716;23.066;2023-09-19T03:41:01;12.30;;;8.02;;
23044;SDS011;11690;51.716;23.066;2023-09-19T03:43:29;11.23;;;7.63;;
23044;SDS011;11690;51.716;23.066;2023-09-19T03:46:00;17.10;;;8.32;;
23044;SDS011;11690;51.716;23.066;2023-09-19T03:48:30;14.73;;;7.88;;
23044;SDS011;11690;51.716;23.066;2023-09-19T03:50:58;14.02;;;7.88;;
23044;SDS011;11690;51.716;23.066;2023-09-19T03:53:25;16.17;;;8.02;;
23044;SDS011;11690;51.716;23.066;2023-09-19T03:55:53;14.15;;;8.25;;
23044;SDS011;11690;51.716;23.066;2023-09-19T03:58:20;12.23;;;7.60;;
23044;SDS011;11690;51.716;23.066;2023-09-19T04:00:47;12.88;;;7.78;;
23044;SDS011;11690;51.716;23.066;2023-09-19T04:03:16;16.70;;;9.05;;
23044;SDS011;11690;51.716;23.066;2023-09-19T04:05:48;17.33;;;9.15;;
23044;SDS011;11690;51.716;23.066;2023-09-19T04:08:15;15.18;;;8.60;;
23044;SDS011;11690;51.716;23.066;2023-09-19T04:10:42;15.15;;;8.30;;
23044;SDS011;11690;51.716;23.066;2023-09-19T04:13:10;17.35;;;8.25;;
23044;SDS011;11690;51.716;23.066;2023-09-19T04:15:37;15.20;;;8.82;;
23044;SDS011;11690;51.716;23.066;2023-09-19T04:18:07;14.48;;;7.93;;
23044;SDS011;11690;51.716;23.066;2023-09-19T04:20:34;15.48;;;8.82;;
23044;SDS011;11690;51.716;23.066;2023-09-19T04:23:02;14.32;;;8.30;;
23044;SDS011;11690;51.716;23.066;2023-09-19T04:25:29;17.52;;;8.20;;
23044;SDS011;11690;51.716;23.066;2023-09-19T04:27:56;13.18;;;7.72;;
23044;SDS011;11690;51.716;23.066;2023-09-19T04:30:25;14.15;;;8.00;;
23044;SDS011;11690;51.716;23.066;2023-09-19T04:32:52;15.80;;;8.45;;
23044;SDS011;11690;51.716;23.066;2023-09-19T04:35:20;13.60;;;7.45;;
23044;SDS011;11690;51.716;23.066;2023-09-19T04:37:47;14.38;;;7.90;;
23044;SDS011;11690;51.716;23.066;2023-09-19T04:40:15;14.98;;;8.18;;
23044;SDS011;11690;51.716;23.066;2023-09-19T04:42:44;14.00;;;8.00;;
23044;SDS011;11690;51.716;23.066;2023-09-19T04:45:13;15.25;;;8.20;;
23044;SDS011;11690;51.716;23.066;2023-09-19T04:47:41;12.45;;;7.85;;
23044;SDS011;11690;51.716;23.066;2023-09-19T04:50:10;12.75;;;7.72;;
23044;SDS011;11690;51.716;23.066;2023-09-19T04:52:41;13.30;;;7.70;;
23044;SDS011;11690;51.716;23.066;2023-09-19T04:55:15;13.68;;;8.07;;
23044;SDS011;11690;51.716;23.066;2023-09-19T04:57:48;17.17;;;7.40;;
23044;SDS011;11690;51.716;23.066;2023-09-19T05:00:17;13.70;;;7.47;;
23044;SDS011;11690;51.716;23.066;2023-09-19T05:02:45;14.13;;;8.60;;
23044;SDS011;11690;51.716;23.066;2023-09-19T05:05:13;14.65;;;8.32;;
23044;SDS011;11690;51.716;23.066;2023-09-19T05:07:45;13.25;;;7.55;;
23044;SDS011;11690;51.716;23.066;2023-09-19T05:10:13;13.38;;;7.60;;
23044;SDS011;11690;51.716;23.066;2023-09-19T05:12:40;13.02;;;7.32;;
23044;SDS011;11690;51.716;23.066;2023-09-19T05:15:08;12.75;;;8.00;;
23044;SDS011;11690;51.716;23.066;2023-09-19T05:17:35;12.45;;;7.63;;
23044;SDS011;11690;51.716;23.066;2023-09-19T05:20:03;12.98;;;7.13;;
23044;SDS011;11690;51.716;23.066;2023-09-19T05:22:57;11.13;;;7.25;;
23044;SDS011;11690;51.716;23.066;2023-09-19T05:25:25;13.80;;;7.18;;
23044;SDS011;11690;51.716;23.066;2023-09-19T05:27:56;12.55;;;7.32;;
23044;SDS011;11690;51.716;23.066;2023-09-19T05:30:25;14.25;;;8.07;;
23044;SDS011;11690;51.716;23.066;2023-09-19T05:32:54;12.25;;;7.68;;
23044;SDS011;11690;51.716;23.066;2023-09-19T05:35:22;12.75;;;6.90;;
23044;SDS011;11690;51.716;23.066;2023-09-19T05:37:53;12.80;;;7.75;;
23044;SDS011;11690;51.716;23.066;2023-09-19T05:40:22;17.50;;;7.70;;
23044;SDS011;11690;51.716;23.066;2023-09-19T05:42:50;13.10;;;7.03;;
23044;SDS011;11690;51.716;23.066;2023-09-19T05:45:17;16.83;;;7.57;;
23044;SDS011;11690;51.716;23.066;2023-09-19T05:47:52;13.45;;;6.85;;
23044;SDS011;11690;51.716;23.066;2023-09-19T05:50:23;12.10;;;7.30;;
23044;SDS011;11690;51.716;23.066;2023-09-19T05:52:51;11.50;;;7.05;;
23044;SDS011;11690;51.716;23.066;2023-09-19T05:55:19;13.35;;;7.72;;
23044;SDS011;11690;51.716;23.066;2023-09-19T05:57:51;10.77;;;6.50;;
23044;SDS011;11690;51.716;23.066;2023-09-19T06:00:19;14.23;;;7.07;;
23044;SDS011;11690;51.716;23.066;2023-09-19T06:02:55;11.43;;;6.65;;
23044;SDS011;11690;51.716;23.066;2023-09-19T06:05:26;14.52;;;7.45;;
23044;SDS011;11690;51.716;23.066;2023-09-19T06:07:54;14.55;;;7.60;;
23044;SDS011;11690;51.716;23.066;2023-09-19T06:10:21;11.68;;;6.90;;
23044;SDS011;11690;51.716;23.066;2023-09-19T06:12:50;14.70;;;6.75;;
23044;SDS011;11690;51.716;23.066;2023-09-19T06:15:17;14.85;;;6.97;;
23044;SDS011;11690;51.716;23.066;2023-09-19T06:17:50;10.07;;;6.57;;
23044;SDS011;11690;51.716;23.066;2023-09-19T06:20:18;10.27;;;6.80;;
23044;SDS011;11690;51.716;23.066;2023-09-19T06:22:46;11.80;;;6.80;;
23044;SDS011;11690;51.716;23.066;2023-09-19T06:25:14;11.85;;;7.00;;
23044;SDS011;11690;51.716;23.066;2023-09-19T06:27:50;10.75;;;6.18;;
23044;SDS011;11690;51.716;23.066;2023-09-19T06:30:26;12.48;;;7.22;;
23044;SDS011;11690;51.716;23.066;2023-09-19T06:32:55;9.60;;;6.22;;
23044;SDS011;11690;51.716;23.066;2023-09-19T06:35:23;11.02;;;6.68;;
23044;SDS011;11690;51.716;23.066;2023-09-19T06:37:53;10.30;;;6.28;;
23044;SDS011;11690;51.716;23.066;2023-09-19T06:40:20;11.73;;;6.80;;
23044;SDS011;11690;51.716;23.066;2023-09-19T06:42:50;11.25;;;6.43;;
23044;SDS011;11690;51.716;23.066;2023-09-19T06:45:18;10.18;;;6.13;;
23044;SDS011;11690;51.716;23.066;2023-09-19T06:47:46;9.00;;;5.90;;
23044;SDS011;11690;51.716;23.066;2023-09-19T06:50:17;11.68;;;5.97;;
23044;SDS011;11690;51.716;23.066;2023-09-19T06:52:46;9.30;;;6.43;;
23044;SDS011;11690;51.716;23.066;2023-09-19T06:55:18;11.93;;;6.45;;
23044;SDS011;11690;51.716;23.066;2023-09-19T06:57:47;10.43;;;5.78;;
23044;SDS011;11690;51.716;23.066;2023-09-19T07:00:15;10.55;;;6.05;;
23044;SDS011;11690;51.716;23.066;2023-09-19T07:02:45;8.65;;;5.45;;
23044;SDS011;11690;51.716;23.066;2023-09-19T07:05:12;9.48;;;5.88;;
23044;SDS011;11690;51.716;23.066;2023-09-19T07:07:40;10.45;;;5.70;;
23044;SDS011;11690;51.716;23.066;2023-09-19T07:10:08;12.40;;;5.93;;
23044;SDS011;11690;51.716;23.066;2023-09-19T07:12:37;8.65;;;5.50;;
23044;SDS011;11690;51.716;23.066;2023-09-19T07:15:05;13.85;;;6.18;;
23044;SDS011;11690;51.716;23.066;2023-09-19T07:17:32;10.98;;;5.47;;
23044;SDS011;11690;51.716;23.066;2023-09-19T07:20:00;10.60;;;5.80;;
23044;SDS011;11690;51.716;23.066;2023-09-19T07:22:27;12.55;;;6.43;;
23044;SDS011;11690;51.716;23.066;2023-09-19T07:24:54;10.10;;;5.40;;
23044;SDS011;11690;51.716;23.066;2023-09-19T07:27:21;7.50;;;5.03;;
23044;SDS011;11690;51.716;23.066;2023-09-19T07:29:49;8.43;;;5.28;;
23044;SDS011;11690;51.716;23.066;2023-09-19T07:32:19;7.65;;;4.85;;
23044;SDS011;11690;51.716;23.066;2023-09-19T07:34:47;8.45;;;4.97;;
23044;SDS011;11690;51.716;23.066;2023-09-19T07:37:14;9.30;;;5.47;;
23044;SDS011;11690;51.716;23.066;2023-09-19T07:39:42;7.80;;;5.05;;
23044;SDS011;11690;51.716;23.066;2023-09-19T07:42:11;8.23;;;4.80;;
23044;SDS011;11690;51.716;23.066;2023-09-19T07:44:45;7.40;;;4.75;;
23044;SDS011;11690;51.716;23.066;2023-09-19T07:47:14;8.55;;;5.28;;
23044;SDS011;11690;51.716;23.066;2023-09-19T07:49:41;5.80;;;4.65;;
23044;SDS011;11690;51.716;23.066;2023-09-19T07:52:09;7.03;;;5.18;;
23044;SDS011;11690;51.716;23.066;2023-09-19T07:54:37;8.05;;;5.35;;
23044;SDS011;11690;51.716;23.066;2023-09-19T07:57:05;12.20;;;5.50;;
23044;SDS011;11690;51.716;23.066;2023-09-19T07:59:32;7.60;;;5.03;;
23044;SDS011;11690;51.716;23.066;2023-09-19T08:01:59;10.50;;;4.47;;
23044;SDS011;11690;51.716;23.066;2023-09-19T08:04:28;10.35;;;5.15;;
23044;SDS011;11690;51.716;23.066;2023-09-19T08:06:57;12.57;;;4.88;;
23044;SDS011;11690;51.716;23.066;2023-09-19T08:09:27;8.73;;;4.85;;
23044;SDS011;11690;51.716;23.066;2023-09-19T08:11:54;11.13;;;5.38;;
23044;SDS011;11690;51.716;23.066;2023-09-19T08:14:22;8.38;;;5.32;;
23044;SDS011;11690;51.716;23.066;2023-09-19T08:16:51;9.75;;;5.05;;
23044;SDS011;11690;51.716;23.066;2023-09-19T08:19:24;17.00;;;5.20;;
23044;SDS011;11690;51.716;23.066;2023-09-19T08:21:55;7.93;;;4.80;;
23044;SDS011;11690;51.716;23.066;2023-09-19T08:24:25;10.10;;;4.90;;
23044;SDS011;11690;51.716;23.066;2023-09-19T08:26:55;7.53;;;4.90;;
23044;SDS011;11690;51.716;23.066;2023-09-19T08:29:24;7.85;;;4.82;;
23044;SDS011;11690;51.716;23.066;2023-09-19T08:31:55;6.57;;;4.43;;
23044;SDS011;11690;51.716;23.066;2023-09-19T08:34:26;7.18;;;4.75;;
23044;SDS011;11690;51.716;23.066;2023-09-19T08:36:54;6.43;;;4.60;;
23044;SDS011;11690;51.716;23.066;2023-09-19T08:39:25;16.17;;;5.50;;
23044;SDS011;11690;51.716;23.066;2023-09-19T08:41:58;6.63;;;4.43;;
23044;SDS011;11690;51.716;23.066;2023-09-19T08:44:27;10.82;;;4.88;;
23044;SDS011;11690;51.716;23.066;2023-09-19T08:47:15;6.60;;;4.68;;
23044;SDS011;11690;51.716;23.066;2023-09-19T08:49:55;6.50;;;4.28;;
23044;SDS011;11690;51.716;23.066;2023-09-19T08:52:37;7.35;;;5.03;;
23044;SDS011;11690;51.716;23.066;2023-09-19T08:55:11;8.30;;;4.43;;
23044;SDS011;11690;51.716;23.066;2023-09-19T08:57:39;8.90;;;4.18;;
23044;SDS011;11690;51.716;23.066;2023-09-19T09:00:08;7.50;;;4.07;;
23044;SDS011;11690;51.716;23.066;2023-09-19T09:02:39;6.07;;;4.57;;
23044;SDS011;11690;51.716;23.066;2023-09-19T09:05:11;12.82;;;4.75;;
23044;SDS011;11690;51.716;23.066;2023-09-19T09:07:38;8.95;;;4.63;;
23044;SDS011;11690;51.716;23.066;2023-09-19T09:10:07;10.23;;;4.80;;
23044;SDS011;11690;51.716;23.066;2023-09-19T09:12:35;6.78;;;4.15;;
23044;SDS011;11690;51.716;23.066;2023-09-19T09:15:08;9.75;;;4.97;;
23044;SDS011;11690;51.716;23.066;2023-09-19T09:17:38;10.95;;;4.68;;
23044;SDS011;11690;51.716;23.066;2023-09-19T09:20:06;8.30;;;4.40;;
23044;SDS011;11690;51.716;23.066;2023-09-19T09:22:35;8.10;;;4.50;;
23044;SDS011;11690;51.716;23.066;2023-09-19T09:25:03;7.85;;;4.47;;
23044;SDS011;11690;51.716;23.066;2023-09-19T09:27:31;12.88;;;4.50;;
23044;SDS011;11690;51.716;23.066;2023-09-19T09:30:01;6.63;;;4.57;;
23044;SDS011;11690;51.716;23.066;2023-09-19T09:32:28;12.77;;;4.68;;
23044;SDS011;11690;51.716;23.066;2023-09-19T09:35:00;7.43;;;4.57;;
23044;SDS011;11690;51.716;23.066;2023-09-19T09:37:28;11.60;;;4.30;;
23044;SDS011;11690;51.716;23.066;2023-09-19T09:40:01;7.10;;;4.32;;
23044;SDS011;11690;51.716;23.066;2023-09-19T09:42:41;6.45;;;4.40;;
23044;SDS011;11690;51.716;23.066;2023-09-19T09:45:12;6.80;;;4.32;;
23044;SDS011;11690;51.716;23.066;2023-09-19T09:48:00;11.02;;;4.30;;
23044;SDS011;11690;51.716;23.066;2023-09-19T09:50:31;6.72;;;4.18;;
23044;SDS011;11690;51.716;23.066;2023-09-19T09:56:04;10.30;;;4.40;;
23044;SDS011;11690;51.716;23.066;2023-09-19T09:58:37;6.22;;;4.55;;
23044;SDS011;11690;51.716;23.066;2023-09-19T10:01:07;7.13;;;4.55;;
23044;SDS011;11690;51.716;23.066;2023-09-19T10:03:42;8.70;;;4.63;;
23044;SDS011;11690;51.716;23.066;2023-09-19T10:06:16;6.60;;;4.35;;
23044;SDS011;11690;51.716;23.066;2023-09-19T10:11:40;7.68;;;4.88;;
23044;SDS011;11690;51.716;23.066;2023-09-19T10:14:13;6.93;;;5.07;;
23044;SDS011;11690;51.716;23.066;2023-09-19T10:16:46;6.68;;;5.20;;
23044;SDS011;11690;51.716;23.066;2023-09-19T10:19:16;8.35;;;5.07;;
23044;SDS011;11690;51.716;23.066;2023-09-19T10:21:50;7.80;;;5.35;;
23044;SDS011;11690;51.716;23.066;2023-09-19T10:24:18;7.05;;;5.03;;
23044;SDS011;11690;51.716;23.066;2023-09-19T10:26:46;9.95;;;5.20;;
23044;SDS011;11690;51.716;23.066;2023-09-19T10:29:13;11.32;;;4.97;;
23044;SDS011;11690;51.716;23.066;2023-09-19T10:31:42;12.07;;;5.13;;
23044;SDS011;11690;51.716;23.066;2023-09-19T10:34:14;9.18;;;5.10;;
23044;SDS011;11690;51.716;23.066;2023-09-19T10:36:45;7.80;;;4.88;;
23044;SDS011;11690;51.716;23.066;2023-09-19T10:39:16;9.20;;;5.05;;
23044;SDS011;11690;51.716;23.066;2023-09-19T10:41:53;8.65;;;5.20;;
23044;SDS011;11690;51.716;23.066;2023-09-19T10:44:23;11.80;;;5.30;;
23044;SDS011;11690;51.716;23.066;2023-09-19T10:46:52;8.48;;;5.00;;
23044;SDS011;11690;51.716;23.066;2023-09-19T10:49:21;11.50;;;4.90;;
23044;SDS011;11690;51.716;23.066;2023-09-19T10:51:50;8.77;;;5.28;;
23044;SDS011;11690;51.716;23.066;2023-09-19T10:54:22;9.55;;;5.85;;
23044;SDS011;11690;51.716;23.066;2023-09-19T10:56:53;11.23;;;5.55;;
23044;SDS011;11690;51.716;23.066;2023-09-19T10:59:21;9.13;;;5.22;;
23044;SDS011;11690;51.716;23.066;2023-09-19T11:01:50;9.45;;;5.45;;
23044;SDS011;11690;51.716;23.066;2023-09-19T11:04:25;9.85;;;5.90;;
23044;SDS011;11690;51.716;23.066;2023-09-19T11:26:44;8.30;;;5.72;;
23044;SDS011;11690;51.716;23.066;2023-09-19T11:29:24;12.82;;;5.47;;
23044;SDS011;11690;51.716;23.066;2023-09-19T11:31:52;9.10;;;5.80;;
23044;SDS011;11690;51.716;23.066;2023-09-19T11:40:05;8.25;;;5.97;;
23044;SDS011;11690;51.716;23.066;2023-09-19T11:42:47;17.70;;;7.15;;
23044;SDS011;11690;51.716;23.066;2023-09-19T11:48:26;9.60;;;6.13;;
23044;SDS011;11690;51.716;23.066;2023-09-19T11:50:54;8.98;;;5.97;;
23044;SDS011;11690;51.716;23.066;2023-09-19T11:53:23;8.98;;;5.97;;
23044;SDS011;11690;51.716;23.066;2023-09-19T11:55:51;8.60;;;6.55;;
23044;SDS011;11690;51.716;23.066;2023-09-19T11:58:19;8.07;;;6.13;;
23044;SDS011;11690;51.716;23.066;2023-09-19T12:00:47;11.30;;;6.15;;
23044;SDS011;11690;51.716;23.066;2023-09-19T12:03:21;8.85;;;5.95;;
23044;SDS011;11690;51.716;23.066;2023-09-19T12:05:48;8.23;;;5.90;;
23044;SDS011;11690;51.716;23.066;2023-09-19T12:08:15;15.00;;;9.23;;
23044;SDS011;11690;51.716;23.066;2023-09-19T12:10:47;12.75;;;7.05;;
23044;SDS011;11690;51.716;23.066;2023-09-19T12:13:16;8.60;;;5.97;;
23044;SDS011;11690;51.716;23.066;2023-09-19T12:15:45;12.32;;;6.07;;
23044;SDS011;11690;51.716;23.066;2023-09-19T12:18:30;8.77;;;6.22;;
23044;SDS011;11690;51.716;23.066;2023-09-19T12:20:57;10.32;;;6.53;;
23044;SDS011;11690;51.716;23.066;2023-09-19T12:23:25;13.43;;;7.10;;
23044;SDS011;11690;51.716;23.066;2023-09-19T12:25:55;8.38;;;5.93;;
23044;SDS011;11690;51.716;23.066;2023-09-19T12:28:25;11.02;;;6.30;;
23044;SDS011;11690;51.716;23.066;2023-09-19T12:30:53;12.88;;;7.28;;
23044;SDS011;11690;51.716;23.066;2023-09-19T12:33:24;12.43;;;6.65;;
23044;SDS011;11690;51.716;23.066;2023-09-19T12:35:53;9.88;;;6.80;;
23044;SDS011;11690;51.716;23.066;2023-09-19T12:38:24;9.40;;;7.25;;
23044;SDS011;11690;51.716;23.066;2023-09-19T12:41:02;10.73;;;7.35;;
23044;SDS011;11690;51.716;23.066;2023-09-19T12:43:29;10.05;;;6.80;;
23044;SDS011;11690;51.716;23.066;2023-09-19T12:46:01;12.25;;;7.43;;
23044;SDS011;11690;51.716;23.066;2023-09-19T12:48:29;9.82;;;7.53;;
23044;SDS011;11690;51.716;23.066;2023-09-19T12:50:59;13.13;;;7.55;;
23044;SDS011;11690;51.716;23.066;2023-09-19T12:53:37;12.43;;;7.55;;
23044;SDS011;11690;51.716;23.066;2023-09-19T12:56:09;13.38;;;7.97;;
23044;SDS011;11690;51.716;23.066;2023-09-19T13:01:17;15.32;;;8.30;;
23044;SDS011;11690;51.716;23.066;2023-09-19T13:03:44;13.43;;;8.52;;
23044;SDS011;11690;51.716;23.066;2023-09-19T13:06:13;10.63;;;7.28;;
23044;SDS011;11690;51.716;23.066;2023-09-19T13:08:43;12.52;;;7.85;;
23044;SDS011;11690;51.716;23.066;2023-09-19T13:11:17;12.20;;;8.00;;
23044;SDS011;11690;51.716;23.066;2023-09-19T13:13:49;12.65;;;7.47;;
23044;SDS011;11690;51.716;23.066;2023-09-19T13:16:51;10.95;;;8.00;;
23044;SDS011;11690;51.716;23.066;2023-09-19T13:19:41;13.98;;;8.07;;
23044;SDS011;11690;51.716;23.066;2023-09-19T13:25:15;13.07;;;8.13;;
23044;SDS011;11690;51.716;23.066;2023-09-19T13:27:47;13.50;;;8.38;;
23044;SDS011;11690;51.716;23.066;2023-09-19T13:30:24;13.50;;;8.23;;
23044;SDS011;11690;51.716;23.066;2023-09-19T13:33:04;14.13;;;8.77;;
23044;SDS011;11690;51.716;23.066;2023-09-19T13:35:33;12.43;;;8.30;;
23044;SDS011;11690;51.716;23.066;2023-09-19T13:38:00;15.35;;;8.98;;
23044;SDS011;11690;51.716;23.066;2023-09-19T13:40:28;13.63;;;9.65;;
23044;SDS011;11690;51.716;23.066;2023-09-19T13:42:59;15.23;;;9.18;;
23044;SDS011;11690;51.716;23.066;2023-09-19T13:45:26;15.32;;;9.02;;
23044;SDS011;11690;51.716;23.066;2023-09-19T13:47:54;15.95;;;9.32;;
23044;SDS011;11690;51.716;23.066;2023-09-19T13:50:21;13.38;;;8.38;;
23044;SDS011;11690;51.716;23.066;2023-09-19T13:52:51;17.45;;;9.30;;
23044;SDS011;11690;51.716;23.066;2023-09-19T13:55:18;14.02;;;9.02;;
23044;SDS011;11690;51.716;23.066;2023-09-19T13:57:48;19.30;;;9.48;;
23044;SDS011;11690;51.716;23.066;2023-09-19T14:00:16;15.02;;;10.48;;
23044;SDS011;11690;51.716;23.066;2023-09-19T14:02:44;16.35;;;10.73;;
23044;SDS011;11690;51.716;23.066;2023-09-19T14:05:12;12.93;;;9.57;;
23044;SDS011;11690;51.716;23.066;2023-09-19T14:07:45;17.00;;;9.40;;
23044;SDS011;11690;51.716;23.066;2023-09-19T14:10:12;10.55;;;7.68;;
23044;SDS011;11690;51.716;23.066;2023-09-19T14:12:40;10.52;;;6.93;;
23044;SDS011;11690;51.716;23.066;2023-09-19T14:15:10;11.68;;;7.60;;
23044;SDS011;11690;51.716;23.066;2023-09-19T14:17:38;12.77;;;7.00;;
23044;SDS011;11690;51.716;23.066;2023-09-19T14:20:06;9.43;;;6.97;;
23044;SDS011;11690;51.716;23.066;2023-09-19T14:22:34;13.32;;;6.82;;
23044;SDS011;11690;51.716;23.066;2023-09-19T14:25:02;10.30;;;6.97;;
23044;SDS011;11690;51.716;23.066;2023-09-19T14:27:31;14.02;;;6.43;;
23044;SDS011;11690;51.716;23.066;2023-09-19T14:29:58;11.77;;;7.10;;
23044;SDS011;11690;51.716;23.066;2023-09-19T14:32:25;9.38;;;6.13;;
23044;SDS011;11690;51.716;23.066;2023-09-19T14:34:52;9.38;;;6.03;;
23044;SDS011;11690;51.716;23.066;2023-09-19T14:37:20;8.55;;;5.93;;
23044;SDS011;11690;51.716;23.066;2023-09-19T14:39:48;10.13;;;6.40;;
23044;SDS011;11690;51.716;23.066;2023-09-19T14:42:15;10.00;;;5.93;;
23044;SDS011;11690;51.716;23.066;2023-09-19T14:44:44;10.45;;;5.90;;
23044;SDS011;11690;51.716;23.066;2023-09-19T14:47:14;9.43;;;6.50;;
23044;SDS011;11690;51.716;23.066;2023-09-19T14:49:43;9.35;;;6.63;;
23044;SDS011;11690;51.716;23.066;2023-09-19T14:52:12;8.75;;;6.55;;
23044;SDS011;11690;51.716;23.066;2023-09-19T14:54:42;10.90;;;6.78;;
23044;SDS011;11690;51.716;23.066;2023-09-19T14:57:10;10.82;;;6.85;;
23044;SDS011;11690;51.716;23.066;2023-09-19T14:59:40;11.30;;;6.65;;
23044;SDS011;11690;51.716;23.066;2023-09-19T15:02:08;9.57;;;6.10;;
23044;SDS011;11690;51.716;23.066;2023-09-19T15:04:36;10.85;;;5.93;;
23044;SDS011;11690;51.716;23.066;2023-09-19T15:07:08;8.70;;;5.97;;
23044;SDS011;11690;51.716;23.066;2023-09-19T15:09:36;7.10;;;5.57;;
23044;SDS011;11690;51.716;23.066;2023-09-19T15:12:04;11.13;;;6.03;;
23044;SDS011;11690;51.716;23.066;2023-09-19T15:14:32;9.80;;;5.68;;
23044;SDS011;11690;51.716;23.066;2023-09-19T15:16:59;8.18;;;6.50;;
23044;SDS011;11690;51.716;23.066;2023-09-19T15:19:26;8.57;;;6.25;;
23044;SDS011;11690;51.716;23.066;2023-09-19T15:21:54;9.20;;;5.75;;
23044;SDS011;11690;51.716;23.066;2023-09-19T15:24:21;10.60;;;6.57;;
23044;SDS011;11690;51.716;23.066;2023-09-19T15:26:48;11.13;;;6.55;;
23044;SDS011;11690;51.716;23.066;2023-09-19T15:29:17;8.90;;;6.40;;
23044;SDS011;11690;51.716;23.066;2023-09-19T15:31:46;10.13;;;6.80;;
23044;SDS011;11690;51.716;23.066;2023-09-19T15:34:13;10.52;;;6.93;;
23044;SDS011;11690;51.716;23.066;2023-09-19T15:36:43;9.55;;;6.65;;
23044;SDS011;11690;51.716;23.066;2023-09-19T15:39:11;10.10;;;6.90;;
23044;SDS011;11690;51.716;23.066;2023-09-19T15:41:39;10.93;;;6.90;;